createdAt,value
2022-12-18T00:01:34.215Z,-1.02
2022-12-18T00:04:04.423Z,-1.05
2022-12-18T00:06:31.646Z,-1.14
2022-12-18T00:08:59.408Z,-1.22
2022-12-18T00:11:28.815Z,-1.17
2022-12-18T00:13:57.656Z,-1.15
2022-12-18T00:16:26.915Z,-1.23
2022-12-18T00:18:59.537Z,-1.38
2022-12-18T00:21:26.781Z,-1.40
2022-12-18T00:23:54.085Z,-1.43
2022-12-18T00:26:24.150Z,-1.42
2022-12-18T00:28:54.969Z,-1.42
2022-12-18T00:31:24.506Z,-1.40
2022-12-18T00:33:57.838Z,-1.47
2022-12-18T00:36:27.443Z,-1.53
2022-12-18T00:38:55.345Z,-1.61
2022-12-18T00:41:41.198Z,-1.49
2022-12-18T00:44:10.769Z,-1.53
2022-12-18T00:46:37.483Z,-1.50
2022-12-18T00:49:04.590Z,-1.57
2022-12-18T00:51:31.606Z,-1.59
2022-12-18T00:53:58.311Z,-1.49
2022-12-18T00:56:25.587Z,-1.56
2022-12-18T00:58:53.339Z,-1.61
2022-12-18T01:01:20.821Z,-1.57
2022-12-18T01:03:47.843Z,-1.55
2022-12-18T01:06:17.229Z,-1.56
2022-12-18T01:08:44.150Z,-1.54
2022-12-18T01:11:17.683Z,-1.52
2022-12-18T01:13:46.282Z,-1.58
2022-12-18T01:16:18.108Z,-1.50
2022-12-18T01:18:45.683Z,-1.52
2022-12-18T01:21:16.600Z,-1.57
2022-12-18T01:23:43.465Z,-1.43
2022-12-18T01:26:13.135Z,-1.51
2022-12-18T01:28:40.998Z,-1.48
2022-12-18T01:31:21.197Z,-1.55
2022-12-18T01:33:48.200Z,-1.53
2022-12-18T01:36:20.263Z,-1.51
2022-12-18T01:38:47.876Z,-1.47
2022-12-18T01:41:16.854Z,-1.64
2022-12-18T01:43:47.551Z,-1.72
2022-12-18T01:46:15.545Z,-1.72
2022-12-18T01:48:43.581Z,-1.89
2022-12-18T01:51:12.751Z,-1.93
2022-12-18T01:53:42.182Z,-1.94
2022-12-18T01:56:12.922Z,-2.08
2022-12-18T01:58:51.633Z,-2.24
2022-12-18T02:01:19.045Z,-2.19
2022-12-18T02:03:46.279Z,-2.22
2022-12-18T02:06:15.668Z,-2.16
2022-12-18T02:08:51.762Z,-1.95
2022-12-18T02:11:29.941Z,-2.02
2022-12-18T02:14:35.533Z,-1.96
2022-12-18T02:17:41.412Z,-1.89
2022-12-18T02:20:17.353Z,-1.86
2022-12-18T02:23:10.224Z,-1.97
2022-12-18T02:25:43.056Z,-2.01
2022-12-18T02:28:14.796Z,-2.09
2022-12-18T02:30:43.685Z,-2.18
2022-12-18T02:33:13.394Z,-2.15
2022-12-18T02:35:42.127Z,-2.26
2022-12-18T02:38:10.369Z,-2.29
2022-12-18T02:40:39.609Z,-2.34
2022-12-18T02:43:12.772Z,-2.48
2022-12-18T02:45:56.023Z,-2.73
2022-12-18T02:48:33.491Z,-2.70
2022-12-18T02:51:03.044Z,-2.70
2022-12-18T02:53:40.769Z,-2.67
2022-12-18T02:56:12.918Z,-2.49
2022-12-18T02:59:05.832Z,-2.43
2022-12-18T03:01:57.028Z,-2.34
2022-12-18T03:04:23.880Z,-2.41
2022-12-18T03:06:54.730Z,-2.28
2022-12-18T03:09:44.791Z,-2.47
2022-12-18T03:12:25.749Z,-2.44
2022-12-18T03:15:18.815Z,-2.50
2022-12-18T03:18:03.722Z,-2.54
2022-12-18T03:20:35.253Z,-2.63
2022-12-18T03:23:12.114Z,-2.75
2022-12-18T03:25:42.768Z,-2.79
2022-12-18T03:28:16.231Z,-2.89
2022-12-18T03:30:46.779Z,-2.89
2022-12-18T03:33:20.726Z,-2.92
2022-12-18T03:35:50.337Z,-2.91
2022-12-18T03:38:18.649Z,-2.88
2022-12-18T03:41:12.465Z,-2.85
2022-12-18T03:44:03.266Z,-2.75
2022-12-18T03:46:41.668Z,-2.67
2022-12-18T03:49:26.904Z,-2.63
2022-12-18T03:52:02.793Z,-2.60
2022-12-18T03:54:31.955Z,-2.61
2022-12-18T03:57:21.735Z,-2.54
2022-12-18T03:59:55.671Z,-2.50
2022-12-18T04:02:26.569Z,-2.54
2022-12-18T04:05:00.231Z,-2.61
2022-12-18T04:07:28.683Z,-2.67
2022-12-18T04:09:59.850Z,-2.67
2022-12-18T04:12:27.818Z,-2.71
2022-12-18T04:14:54.607Z,-2.78
2022-12-18T04:17:22.624Z,-2.85
2022-12-18T04:19:50.270Z,-3.02
2022-12-18T04:22:17.491Z,-3.09
2022-12-18T04:24:47.782Z,-3.14
2022-12-18T04:27:27.163Z,-3.29
2022-12-18T04:29:54.085Z,-3.27
2022-12-18T04:32:20.842Z,-3.30
2022-12-18T04:34:48.811Z,-3.32
2022-12-18T04:37:15.962Z,-3.36
2022-12-18T04:39:43.254Z,-3.32
2022-12-18T04:42:16.806Z,-3.44
2022-12-18T04:44:43.562Z,-3.35
2022-12-18T04:47:10.265Z,-3.36
2022-12-18T04:49:37.029Z,-3.44
2022-12-18T04:52:03.891Z,-3.61
2022-12-18T04:54:30.633Z,-3.54
2022-12-18T04:56:57.334Z,-3.56
2022-12-18T04:59:24.068Z,-3.66
2022-12-18T05:01:51.134Z,-3.80
2022-12-18T05:04:18.008Z,-3.86
2022-12-18T05:06:44.873Z,-3.94
2022-12-18T05:09:11.681Z,-3.84
2022-12-18T05:11:38.461Z,-4.01
2022-12-18T05:14:05.184Z,-4.04
2022-12-18T05:16:31.979Z,-3.99
2022-12-18T05:18:58.686Z,-4.21
2022-12-18T05:21:25.425Z,-4.15
2022-12-18T05:23:52.158Z,-4.16
2022-12-18T05:26:19.508Z,-4.00
2022-12-18T05:28:47.005Z,-4.01
2022-12-18T05:31:14.037Z,-4.06
2022-12-18T05:33:41.024Z,-4.02
2022-12-18T05:36:09.945Z,-4.02
2022-12-18T05:38:38.441Z,-4.14
2022-12-18T05:41:06.049Z,-4.17
2022-12-18T05:43:34.623Z,-4.17
2022-12-18T05:46:08.710Z,-4.13
2022-12-18T05:48:35.801Z,-4.19
2022-12-18T05:51:11.398Z,-4.21
2022-12-18T05:53:39.134Z,-4.29
2022-12-18T05:56:13.622Z,-4.25
2022-12-18T05:58:40.515Z,-4.34
2022-12-18T06:01:13.065Z,-4.41
2022-12-18T06:03:40.556Z,-4.43
2022-12-18T06:06:33.975Z,-4.54
2022-12-18T06:09:02.368Z,-4.51
2022-12-18T06:11:29.245Z,-4.50
2022-12-18T06:13:58.989Z,-4.51
2022-12-18T06:16:27.369Z,-4.50
2022-12-18T06:18:54.440Z,-4.48
2022-12-18T06:21:21.188Z,-4.51
2022-12-18T06:23:47.924Z,-4.57
2022-12-18T06:26:15.352Z,-4.60
2022-12-18T06:28:42.397Z,-4.62
2022-12-18T06:31:10.209Z,-4.75
2022-12-18T06:33:38.162Z,-4.74
2022-12-18T06:36:08.677Z,-4.76
2022-12-18T06:38:37.914Z,-4.85
2022-12-18T06:41:09.595Z,-4.84
2022-12-18T06:43:37.057Z,-4.72
2022-12-18T06:46:05.058Z,-4.71
2022-12-18T06:48:32.240Z,-4.72
2022-12-18T06:50:59.492Z,-4.62
2022-12-18T06:53:26.365Z,-4.66
2022-12-18T06:55:53.098Z,-4.58
2022-12-18T06:58:19.879Z,-4.49
2022-12-18T07:00:46.576Z,-4.46
2022-12-18T07:03:13.303Z,-4.42
2022-12-18T07:05:42.889Z,-4.38
2022-12-18T07:08:09.656Z,-4.37
2022-12-18T07:10:47.529Z,-4.22
2022-12-18T07:13:15.055Z,-4.18
2022-12-18T07:15:42.287Z,-4.16
2022-12-18T07:18:09.969Z,-4.11
2022-12-18T07:20:36.644Z,-4.11
2022-12-18T07:23:04.855Z,-4.01
2022-12-18T07:25:35.999Z,-3.91
2022-12-18T07:28:03.217Z,-3.88
2022-12-18T07:30:30.076Z,-3.81
2022-12-18T07:32:56.870Z,-3.79
2022-12-18T07:35:25.346Z,-3.62
2022-12-18T07:37:52.536Z,-3.51
2022-12-18T07:40:19.505Z,-3.45
2022-12-18T07:42:46.216Z,-3.37
2022-12-18T07:45:12.993Z,-3.28
2022-12-18T07:47:42.209Z,-3.29
2022-12-18T07:50:09.220Z,-3.29
2022-12-18T07:52:35.940Z,-3.20
2022-12-18T07:55:03.741Z,-3.19
2022-12-18T08:00:17.575Z,-3.02
2022-12-18T08:02:44.747Z,-3.09
2022-12-18T08:05:11.613Z,-3.07
2022-12-18T08:07:39.150Z,-2.92
2022-12-18T08:10:07.358Z,-2.82
2022-12-18T08:12:34.113Z,-2.88
2022-12-18T08:15:01.056Z,-2.93
2022-12-18T08:17:27.747Z,-2.92
2022-12-18T08:19:54.409Z,-2.87
2022-12-18T08:22:21.206Z,-2.77
2022-12-18T08:24:47.895Z,-2.65
2022-12-18T08:27:28.791Z,-2.48
2022-12-18T08:29:56.223Z,-2.40
2022-12-18T08:32:22.913Z,-2.40
2022-12-18T08:34:49.699Z,-2.34
2022-12-18T08:37:16.395Z,-2.34
2022-12-18T08:39:43.096Z,-2.34
2022-12-18T08:42:28.249Z,-2.20
2022-12-18T08:44:55.013Z,-2.12
2022-12-18T08:47:21.829Z,-2.12
2022-12-18T08:49:48.607Z,-2.09
2022-12-18T08:52:15.296Z,-2.04
2022-12-18T08:54:41.938Z,-1.97
2022-12-18T08:57:08.658Z,-1.97
2022-12-18T08:59:35.367Z,-1.84
2022-12-18T09:02:02.117Z,-1.76
2022-12-18T09:04:29.188Z,-1.73
2022-12-18T09:06:55.874Z,-1.66
2022-12-18T09:09:22.634Z,-1.58
2022-12-18T09:11:49.365Z,-1.44
2022-12-18T09:14:16.094Z,-1.32
2022-12-18T09:16:43.100Z,-1.22
2022-12-18T09:19:10.702Z,-1.16
2022-12-18T09:21:42.183Z,-1.05
2022-12-18T09:24:16.997Z,-0.88
2022-12-18T09:26:47.331Z,-0.79
2022-12-18T09:29:15.597Z,-0.64
2022-12-18T09:31:43.116Z,-0.63
2022-12-18T09:34:09.737Z,-0.55
2022-12-18T09:36:36.534Z,-0.50
2022-12-18T09:39:08.101Z,-0.42
2022-12-18T09:41:51.851Z,-0.28
2022-12-18T09:44:24.581Z,-0.19
2022-12-18T09:47:29.799Z,-0.18
2022-12-18T09:50:02.187Z,-0.10
2022-12-18T09:52:36.769Z,-0.06
2022-12-18T09:55:26.057Z,0.10
2022-12-18T09:57:58.882Z,0.18
2022-12-18T10:00:26.198Z,0.14
2022-12-18T10:03:00.768Z,0.20
2022-12-18T10:05:55.680Z,0.28
2022-12-18T10:08:30.172Z,0.21
2022-12-18T10:11:30.364Z,0.32
2022-12-18T10:14:10.369Z,0.40
2022-12-18T10:16:52.938Z,0.39
2022-12-18T10:19:28.864Z,0.48
2022-12-18T10:22:23.162Z,0.55
2022-12-18T10:25:06.886Z,0.65
2022-12-18T10:27:33.893Z,0.77
2022-12-18T10:30:10.175Z,0.77
2022-12-18T10:32:36.903Z,0.79
2022-12-18T10:35:03.821Z,0.93
2022-12-18T10:37:31.140Z,1.00
2022-12-18T10:40:22.271Z,1.59
2022-12-18T10:43:13.172Z,2.24
2022-12-18T10:45:40.524Z,2.47
2022-12-18T10:48:20.814Z,2.84
2022-12-18T10:53:38.460Z,3.47
2022-12-18T10:56:07.622Z,3.33
2022-12-18T10:58:36.806Z,3.51
2022-12-18T11:01:11.715Z,3.61
2022-12-18T11:03:44.443Z,3.64
2022-12-18T11:06:19.031Z,3.80
2022-12-18T11:08:59.585Z,4.02
2022-12-18T11:11:26.714Z,5.23
2022-12-18T11:14:19.347Z,8.66
2022-12-18T11:17:23.929Z,11.20
2022-12-18T11:19:40.929Z,13.68
2022-12-18T11:22:28.610Z,15.87
2022-12-18T11:25:32.147Z,16.78
2022-12-18T11:28:01.647Z,17.42
2022-12-18T11:30:32.120Z,18.81
2022-12-18T11:33:20.504Z,18.82
2022-12-18T11:36:04.686Z,20.08
2022-12-18T11:38:35.553Z,20.37
2022-12-18T11:41:22.484Z,20.33
2022-12-18T11:43:59.133Z,18.77
2022-12-18T11:46:34.086Z,19.10
2022-12-18T11:49:18.377Z,17.87
2022-12-18T11:51:54.982Z,16.90
2022-12-18T11:54:21.722Z,16.93
2022-12-18T11:57:08.319Z,16.98
2022-12-18T12:00:10.561Z,17.12
2022-12-18T12:02:58.505Z,16.99
2022-12-18T12:05:44.201Z,12.44
2022-12-18T12:08:35.386Z,10.28
2022-12-18T12:11:16.557Z,8.15
2022-12-18T12:14:10.720Z,6.92
2022-12-18T12:17:02.444Z,5.94
2022-12-18T12:19:47.146Z,5.41
2022-12-18T12:22:19.816Z,5.39
2022-12-18T12:25:06.768Z,6.62
2022-12-18T12:27:44.008Z,7.56
2022-12-18T12:30:38.170Z,5.38
2022-12-18T12:33:11.081Z,4.83
2022-12-18T12:35:58.057Z,4.45
2022-12-18T12:38:52.299Z,4.00
2022-12-18T12:41:43.413Z,3.62
2022-12-18T12:44:18.879Z,3.54
2022-12-18T12:46:46.626Z,3.22
2022-12-18T12:49:18.499Z,2.92
2022-12-18T12:51:51.146Z,2.81
2022-12-18T12:54:24.660Z,2.60
2022-12-18T12:57:10.209Z,2.48
2022-12-18T13:00:04.599Z,2.52
2022-12-18T13:02:45.696Z,2.47
2022-12-18T13:05:45.573Z,2.41
2022-12-18T13:08:31.650Z,2.41
2022-12-18T13:11:21.269Z,2.36
2022-12-18T13:13:57.096Z,2.24
2022-12-18T13:16:26.591Z,2.15
2022-12-18T13:18:59.601Z,1.94
2022-12-18T13:21:35.587Z,1.88
2022-12-18T13:24:23.232Z,1.97
2022-12-18T13:26:50.023Z,2.13
2022-12-18T13:29:46.489Z,1.97
2022-12-18T13:32:24.356Z,2.35
2022-12-18T13:35:21.039Z,4.83
2022-12-18T13:37:54.229Z,3.53
2022-12-18T13:40:39.826Z,3.25
2022-12-18T13:43:21.537Z,3.23
2022-12-18T13:45:49.931Z,2.90
2022-12-18T13:48:24.063Z,2.67
2022-12-18T13:50:59.920Z,2.62
2022-12-18T13:53:35.011Z,2.82
2022-12-18T13:56:03.283Z,2.90
2022-12-18T13:58:30.430Z,2.95
2022-12-18T14:00:57.820Z,2.61
2022-12-18T14:03:27.758Z,2.37
2022-12-18T14:06:02.272Z,2.30
2022-12-18T14:08:36.210Z,2.18
2022-12-18T14:11:06.558Z,2.15
2022-12-18T14:13:42.288Z,2.08
2022-12-18T14:16:16.161Z,1.94
2022-12-18T14:18:49.186Z,1.87
2022-12-18T14:21:30.746Z,1.81
2022-12-18T14:24:19.531Z,1.73
2022-12-18T14:26:48.383Z,1.62
2022-12-18T14:29:24.675Z,1.59
2022-12-18T14:32:18.861Z,1.56
2022-12-18T14:34:54.666Z,1.43
2022-12-18T14:37:25.344Z,1.35
2022-12-18T14:40:03.206Z,1.28
2022-12-18T14:42:34.841Z,1.16
2022-12-18T14:45:41.707Z,1.14
2022-12-18T14:48:19.040Z,1.05
2022-12-18T14:51:02.004Z,1.00
2022-12-18T14:53:45.422Z,0.94
2022-12-18T14:56:19.527Z,0.89
2022-12-18T14:58:55.832Z,0.80
2022-12-18T15:01:37.235Z,0.75
2022-12-18T15:04:06.541Z,0.72
2022-12-18T15:06:36.418Z,0.68
2022-12-18T15:09:24.479Z,0.57
2022-12-18T15:12:00.102Z,0.50
2022-12-18T15:14:35.784Z,0.46
2022-12-18T15:17:06.271Z,0.42
2022-12-18T15:19:44.593Z,0.36
2022-12-18T15:22:21.435Z,0.30
2022-12-18T15:24:49.904Z,0.13
2022-12-18T15:27:27.680Z,0.10
2022-12-18T15:30:22.779Z,-0.06
2022-12-18T15:32:50.438Z,-0.16
2022-12-18T15:35:17.094Z,-0.28
2022-12-18T15:37:44.367Z,-0.45
2022-12-18T15:40:20.008Z,-0.44
2022-12-18T15:43:06.923Z,-0.50
2022-12-18T15:45:34.159Z,-0.60
2022-12-18T15:48:01.043Z,-0.65
2022-12-18T15:50:27.766Z,-0.73
2022-12-18T15:52:56.718Z,-0.83
2022-12-18T15:55:43.422Z,-0.80
2022-12-18T15:58:12.099Z,-0.89
2022-12-18T16:00:41.157Z,-0.99
2022-12-18T16:03:09.474Z,-1.04
2022-12-18T16:05:36.224Z,-1.10
2022-12-18T16:08:03.163Z,-1.19
2022-12-18T16:10:30.052Z,-1.23
2022-12-18T16:12:56.970Z,-1.17
2022-12-18T16:15:24.981Z,-1.19
2022-12-18T16:17:52.968Z,-1.25
2022-12-18T16:20:23.622Z,-1.35
2022-12-18T16:22:50.914Z,-1.34
2022-12-18T16:25:27.724Z,-1.45
2022-12-18T16:27:56.249Z,-1.51
2022-12-18T16:30:30.544Z,-1.57
2022-12-18T16:33:00.698Z,-1.59
2022-12-18T16:35:28.164Z,-1.63
2022-12-18T16:37:54.970Z,-1.67
2022-12-18T16:40:21.892Z,-1.83
2022-12-18T16:42:48.711Z,-1.87
2022-12-18T16:45:17.876Z,-1.91
2022-12-18T16:47:45.073Z,-1.93
2022-12-18T16:50:12.213Z,-1.89
2022-12-18T16:52:39.220Z,-1.86
2022-12-18T16:55:06.719Z,-1.93
2022-12-18T16:57:33.457Z,-1.90
2022-12-18T17:00:05.187Z,-2.06
2022-12-18T17:02:33.550Z,-2.12
2022-12-18T17:05:00.484Z,-2.05
2022-12-18T17:07:28.455Z,-2.10
2022-12-18T17:09:55.862Z,-2.17
2022-12-18T17:12:23.498Z,-2.17
2022-12-18T17:14:50.307Z,-2.24
2022-12-18T17:17:22.248Z,-2.24
2022-12-18T17:19:50.046Z,-2.32
2022-12-18T17:22:16.803Z,-2.37
2022-12-18T17:24:43.790Z,-2.42
2022-12-18T17:27:10.588Z,-2.39
2022-12-18T17:29:41.138Z,-2.52
2022-12-18T17:32:12.474Z,-2.63
2022-12-18T17:34:40.809Z,-2.65
2022-12-18T17:37:08.059Z,-2.66
2022-12-18T17:39:34.766Z,-2.67
2022-12-18T17:42:01.563Z,-2.69
2022-12-18T17:44:28.358Z,-2.70
2022-12-18T17:46:55.391Z,-2.65
2022-12-18T17:49:22.097Z,-2.77
2022-12-18T17:51:49.071Z,-2.76
2022-12-18T17:54:15.794Z,-2.87
2022-12-18T17:56:42.545Z,-2.84
2022-12-18T17:59:09.651Z,-2.92
2022-12-18T18:01:42.605Z,-2.99
2022-12-18T18:04:11.802Z,-3.07
2022-12-18T18:06:39.020Z,-3.10
2022-12-18T18:09:09.977Z,-3.13
2022-12-18T18:12:03.260Z,-3.16
2022-12-18T18:14:30.506Z,-3.18
2022-12-18T18:17:01.140Z,-3.26
2022-12-18T18:19:32.384Z,-3.26
2022-12-18T18:21:59.113Z,-3.19
2022-12-18T18:24:26.108Z,-3.30
2022-12-18T18:26:53.373Z,-3.33
2022-12-18T18:29:23.004Z,-3.17
2022-12-18T18:31:50.361Z,-3.07
2022-12-18T18:34:20.260Z,-3.13
2022-12-18T18:36:47.197Z,-3.12
2022-12-18T18:39:14.952Z,-3.19
2022-12-18T18:41:42.178Z,-3.30
2022-12-18T18:44:13.901Z,-3.34
2022-12-18T18:46:40.603Z,-3.35
2022-12-18T18:49:07.394Z,-3.42
2022-12-18T18:51:35.315Z,-3.37
2022-12-18T18:54:02.582Z,-3.39
2022-12-18T18:59:16.933Z,-3.36
2022-12-18T19:01:44.185Z,-3.38
2022-12-18T19:04:11.030Z,-3.40
2022-12-18T19:06:37.928Z,-3.40
2022-12-18T19:09:06.624Z,-3.41
2022-12-18T19:11:52.487Z,-3.51
2022-12-18T19:14:20.281Z,-3.62
2022-12-18T19:16:47.098Z,-3.61
2022-12-18T19:19:14.156Z,-3.56
2022-12-18T19:21:40.921Z,-3.61
2022-12-18T19:24:10.128Z,-3.61
2022-12-18T19:26:37.801Z,-3.65
2022-12-18T19:29:09.133Z,-3.70
2022-12-18T19:31:37.394Z,-3.75
2022-12-18T19:34:06.909Z,-3.67
2022-12-18T19:36:36.054Z,-3.74
2022-12-18T19:39:11.769Z,-3.74
2022-12-18T19:41:39.276Z,-3.87
2022-12-18T19:44:08.209Z,-3.85
2022-12-18T19:46:36.080Z,-3.84
2022-12-18T19:49:04.888Z,-3.86
2022-12-18T19:51:32.414Z,-3.85
2022-12-18T19:54:01.946Z,-3.84
2022-12-18T19:56:33.917Z,-3.89
2022-12-18T19:59:01.294Z,-3.95
2022-12-18T20:01:29.250Z,-3.96
2022-12-18T20:03:57.458Z,-4.03
2022-12-18T20:06:34.231Z,-4.02
2022-12-18T20:09:06.039Z,-3.93
2022-12-18T20:11:39.644Z,-3.88
2022-12-18T20:14:09.564Z,-4.01
2022-12-18T20:16:36.300Z,-3.99
2022-12-18T20:19:04.045Z,-3.98
2022-12-18T20:21:30.996Z,-3.91
2022-12-18T20:23:59.156Z,-3.83
2022-12-18T20:26:26.431Z,-3.81
2022-12-18T20:28:54.775Z,-3.92
2022-12-18T20:31:22.682Z,-3.97
2022-12-18T20:33:50.973Z,-3.99
2022-12-18T20:36:24.722Z,-3.97
2022-12-18T20:38:55.734Z,-4.02
2022-12-18T20:41:26.279Z,-4.07
2022-12-18T20:43:57.757Z,-4.07
2022-12-18T20:46:24.696Z,-4.12
2022-12-18T20:48:51.863Z,-4.07
2022-12-18T20:51:23.612Z,-4.25
2022-12-18T20:53:50.371Z,-4.34
2022-12-18T20:56:21.634Z,-4.24
2022-12-18T20:58:50.170Z,-4.18
2022-12-18T21:01:21.750Z,-4.23
2022-12-18T21:03:49.296Z,-4.23
2022-12-18T21:06:18.395Z,-4.22
2022-12-18T21:08:45.390Z,-4.32
2022-12-18T21:11:35.012Z,-4.37
2022-12-18T21:14:03.144Z,-4.36
2022-12-18T21:16:30.167Z,-4.38
2022-12-18T21:18:56.923Z,-4.41
2022-12-18T21:21:26.616Z,-4.41
2022-12-18T21:23:54.889Z,-4.53
2022-12-18T21:26:24.038Z,-4.48
2022-12-18T21:28:56.266Z,-4.37
2022-12-18T21:31:25.069Z,-4.33
2022-12-18T21:33:52.654Z,-4.33
2022-12-18T21:36:24.150Z,-4.35
2022-12-18T21:38:53.601Z,-4.38
2022-12-18T21:41:42.407Z,-4.49
2022-12-18T21:44:13.283Z,-4.47
2022-12-18T21:46:44.110Z,-4.45
2022-12-18T21:49:14.483Z,-4.41
2022-12-18T21:51:41.642Z,-4.44
2022-12-18T21:54:08.527Z,-4.42
2022-12-18T21:56:57.513Z,-4.21
2022-12-18T21:59:43.760Z,-4.14
2022-12-18T22:02:16.791Z,-4.16
2022-12-18T22:04:46.121Z,-4.15
2022-12-18T22:07:15.072Z,-4.18
2022-12-18T22:09:42.163Z,-4.22
2022-12-18T22:12:12.606Z,-4.23
2022-12-18T22:14:39.398Z,-4.22
2022-12-18T22:17:06.127Z,-4.27
2022-12-18T22:19:38.136Z,-4.26
2022-12-18T22:22:09.522Z,-4.25
2022-12-18T22:24:36.290Z,-4.36
2022-12-18T22:27:03.077Z,-4.30
2022-12-18T22:29:48.350Z,-4.33
2022-12-18T22:32:17.785Z,-4.39
2022-12-18T22:35:07.180Z,-4.51
2022-12-18T22:37:35.043Z,-4.55
2022-12-18T22:40:03.087Z,-4.64
2022-12-18T22:42:30.907Z,-4.66
2022-12-18T22:44:57.636Z,-4.85
2022-12-18T22:47:29.448Z,-4.91
2022-12-18T22:49:56.731Z,-4.89
2022-12-18T22:52:24.735Z,-4.91
2022-12-18T22:54:53.414Z,-4.84
2022-12-18T22:57:22.021Z,-4.89
2022-12-18T22:59:49.826Z,-4.90
2022-12-18T23:02:17.956Z,-5.03
2022-12-18T23:04:45.438Z,-5.05
2022-12-18T23:07:12.462Z,-5.04
2022-12-18T23:09:39.791Z,-4.98
2022-12-18T23:12:07.323Z,-4.89
2022-12-18T23:14:34.011Z,-4.98
2022-12-18T23:17:00.729Z,-4.94
2022-12-18T23:19:27.470Z,-4.91
2022-12-18T23:21:54.835Z,-5.04
2022-12-18T23:24:23.802Z,-5.10
2022-12-18T23:26:50.515Z,-5.04
2022-12-18T23:29:17.173Z,-4.95
2022-12-18T23:31:43.929Z,-4.91
2022-12-18T23:34:13.881Z,-4.78
2022-12-18T23:36:46.689Z,-4.77
2022-12-18T23:39:15.617Z,-4.74
2022-12-18T23:41:56.784Z,-4.66
2022-12-18T23:44:23.679Z,-4.60
2022-12-18T23:46:50.536Z,-4.57
2022-12-18T23:49:17.334Z,-4.57
2022-12-18T23:51:44.044Z,-4.51
2022-12-18T23:54:10.971Z,-4.58
2022-12-18T23:56:37.791Z,-4.53
2022-12-18T23:59:04.957Z,-4.55
